sensor_id;sensor_type;location;lat;lon;timestamp;temperature;humidity
78461;SHT31;67755;51.986;5.696;2023-07-20T00:02:23;21.3;62.1
78461;SHT31;67755;51.986;5.696;2023-07-20T00:04:53;21.3;61.9
78461;SHT31;67755;51.986;5.696;2023-07-20T00:07:22;21.3;61.8
78461;SHT31;67755;51.986;5.696;2023-07-20T00:09:53;21.3;62.1
78461;SHT31;67755;51.986;5.696;2023-07-20T00:12:23;21.3;62.1
78461;SHT31;67755;51.986;5.696;2023-07-20T00:14:52;21.3;62.3
78461;SHT31;67755;51.986;5.696;2023-07-20T00:17:22;21.3;62.1
78461;SHT31;67755;51.986;5.696;2023-07-20T00:19:52;21.3;62.2
78461;SHT31;67755;51.986;5.696;2023-07-20T00:22:21;21.3;62.1
78461;SHT31;67755;51.986;5.696;2023-07-20T00:24:51;21.3;62.3
78461;SHT31;67755;51.986;5.696;2023-07-20T00:27:22;21.3;62.0
78461;SHT31;67755;51.986;5.696;2023-07-20T00:29:52;21.3;62.0
78461;SHT31;67755;51.986;5.696;2023-07-20T00:32:22;21.2;62.2
78461;SHT31;67755;51.986;5.696;2023-07-20T00:34:51;21.2;62.1
78461;SHT31;67755;51.986;5.696;2023-07-20T00:37:21;21.2;62.1
78461;SHT31;67755;51.986;5.696;2023-07-20T00:39:50;21.2;61.9
78461;SHT31;67755;51.986;5.696;2023-07-20T00:42:20;21.2;62.0
78461;SHT31;67755;51.986;5.696;2023-07-20T00:44:50;21.2;61.9
78461;SHT31;67755;51.986;5.696;2023-07-20T00:47:19;21.2;61.9
78461;SHT31;67755;51.986;5.696;2023-07-20T00:49:50;21.1;62.3
78461;SHT31;67755;51.986;5.696;2023-07-20T00:52:21;21.1;62.3
78461;SHT31;67755;51.986;5.696;2023-07-20T00:54:52;21.1;62.0
78461;SHT31;67755;51.986;5.696;2023-07-20T00:57:24;21.1;62.0
78461;SHT31;67755;51.986;5.696;2023-07-20T00:59:56;21.1;62.0
78461;SHT31;67755;51.986;5.696;2023-07-20T01:02:26;21.1;61.7
78461;SHT31;67755;51.986;5.696;2023-07-20T01:04:56;21.1;61.7
78461;SHT31;67755;51.986;5.696;2023-07-20T01:07:32;21.1;62.2
78461;SHT31;67755;51.986;5.696;2023-07-20T01:10:12;21.1;62.2
78461;SHT31;67755;51.986;5.696;2023-07-20T01:12:47;21.0;62.1
78461;SHT31;67755;51.986;5.696;2023-07-20T01:15:17;21.0;62.0
78461;SHT31;67755;51.986;5.696;2023-07-20T01:17:47;21.0;61.4
78461;SHT31;67755;51.986;5.696;2023-07-20T01:20:19;21.0;61.2
78461;SHT31;67755;51.986;5.696;2023-07-20T01:23:22;21.0;61.1
78461;SHT31;67755;51.986;5.696;2023-07-20T01:26:05;21.0;60.8
78461;SHT31;67755;51.986;5.696;2023-07-20T01:31:33;20.9;60.8
78461;SHT31;67755;51.986;5.696;2023-07-20T01:34:06;20.9;60.9
78461;SHT31;67755;51.986;5.696;2023-07-20T01:36:38;20.9;60.9
78461;SHT31;67755;51.986;5.696;2023-07-20T01:39:10;20.9;61.0
78461;SHT31;67755;51.986;5.696;2023-07-20T01:41:43;20.8;61.2
78461;SHT31;67755;51.986;5.696;2023-07-20T01:44:13;20.8;61.1
78461;SHT31;67755;51.986;5.696;2023-07-20T01:46:44;20.8;61.0
78461;SHT31;67755;51.986;5.696;2023-07-20T01:49:14;20.8;61.0
78461;SHT31;67755;51.986;5.696;2023-07-20T01:51:43;20.7;61.0
78461;SHT31;67755;51.986;5.696;2023-07-20T01:54:13;20.7;61.2
78461;SHT31;67755;51.986;5.696;2023-07-20T01:56:42;20.7;61.0
78461;SHT31;67755;51.986;5.696;2023-07-20T01:59:14;20.7;61.4
78461;SHT31;67755;51.986;5.696;2023-07-20T02:01:43;20.7;61.3
78461;SHT31;67755;51.986;5.696;2023-07-20T02:04:13;20.6;61.1
78461;SHT31;67755;51.986;5.696;2023-07-20T02:06:42;20.6;61.0
78461;SHT31;67755;51.986;5.696;2023-07-20T02:09:12;20.6;60.6
78461;SHT31;67755;51.986;5.696;2023-07-20T02:11:42;20.6;60.6
78461;SHT31;67755;51.986;5.696;2023-07-20T02:14:11;20.6;60.2
78461;SHT31;67755;51.986;5.696;2023-07-20T02:16:41;20.5;60.0
78461;SHT31;67755;51.986;5.696;2023-07-20T02:19:10;20.5;59.9
78461;SHT31;67755;51.986;5.696;2023-07-20T02:21:40;20.5;60.0
78461;SHT31;67755;51.986;5.696;2023-07-20T02:24:09;20.5;59.8
78461;SHT31;67755;51.986;5.696;2023-07-20T02:26:41;20.5;59.6
78461;SHT31;67755;51.986;5.696;2023-07-20T02:29:11;20.4;59.6
78461;SHT31;67755;51.986;5.696;2023-07-20T02:31:40;20.4;59.6
78461;SHT31;67755;51.986;5.696;2023-07-20T02:34:10;20.4;59.5
78461;SHT31;67755;51.986;5.696;2023-07-20T02:36:41;20.3;59.5
78461;SHT31;67755;51.986;5.696;2023-07-20T02:39:11;20.3;59.5
78461;SHT31;67755;51.986;5.696;2023-07-20T02:41:41;20.3;59.6
78461;SHT31;67755;51.986;5.696;2023-07-20T02:44:11;20.3;59.7
78461;SHT31;67755;51.986;5.696;2023-07-20T02:46:41;20.2;59.8
78461;SHT31;67755;51.986;5.696;2023-07-20T02:49:10;20.2;59.9
78461;SHT31;67755;51.986;5.696;2023-07-20T02:51:42;20.2;59.8
78461;SHT31;67755;51.986;5.696;2023-07-20T02:54:12;20.2;59.5
78461;SHT31;67755;51.986;5.696;2023-07-20T02:56:41;20.1;59.6
78461;SHT31;67755;51.986;5.696;2023-07-20T02:59:11;20.1;59.4
78461;SHT31;67755;51.986;5.696;2023-07-20T03:01:43;20.1;59.7
78461;SHT31;67755;51.986;5.696;2023-07-20T03:04:12;20.1;59.6
78461;SHT31;67755;51.986;5.696;2023-07-20T03:06:43;20.1;59.4
78461;SHT31;67755;51.986;5.696;2023-07-20T03:09:13;20.0;59.5
78461;SHT31;67755;51.986;5.696;2023-07-20T03:11:43;20.0;59.4
78461;SHT31;67755;51.986;5.696;2023-07-20T03:14:12;20.0;59.3
78461;SHT31;67755;51.986;5.696;2023-07-20T03:16:42;20.0;59.5
78461;SHT31;67755;51.986;5.696;2023-07-20T03:19:11;19.9;59.5
78461;SHT31;67755;51.986;5.696;2023-07-20T03:21:41;19.9;59.2
78461;SHT31;67755;51.986;5.696;2023-07-20T03:24:13;19.9;59.0
78461;SHT31;67755;51.986;5.696;2023-07-20T03:26:44;19.9;59.2
78461;SHT31;67755;51.986;5.696;2023-07-20T03:29:14;19.8;59.1
78461;SHT31;67755;51.986;5.696;2023-07-20T03:31:43;19.8;59.3
78461;SHT31;67755;51.986;5.696;2023-07-20T03:34:13;19.8;59.1
78461;SHT31;67755;51.986;5.696;2023-07-20T03:36:42;19.8;59.2
78461;SHT31;67755;51.986;5.696;2023-07-20T03:39:12;19.8;59.0
78461;SHT31;67755;51.986;5.696;2023-07-20T03:41:42;19.7;59.1
78461;SHT31;67755;51.986;5.696;2023-07-20T03:44:13;19.7;59.4
78461;SHT31;67755;51.986;5.696;2023-07-20T03:46:44;19.7;59.0
78461;SHT31;67755;51.986;5.696;2023-07-20T03:49:13;19.7;58.9
78461;SHT31;67755;51.986;5.696;2023-07-20T03:51:43;19.6;59.1
78461;SHT31;67755;51.986;5.696;2023-07-20T03:54:13;19.6;59.0
78461;SHT31;67755;51.986;5.696;2023-07-20T03:56:42;19.6;59.4
78461;SHT31;67755;51.986;5.696;2023-07-20T03:59:12;19.6;59.2
78461;SHT31;67755;51.986;5.696;2023-07-20T04:01:43;19.6;59.0
78461;SHT31;67755;51.986;5.696;2023-07-20T04:04:16;19.5;59.2
78461;SHT31;67755;51.986;5.696;2023-07-20T04:06:46;19.5;59.6
78461;SHT31;67755;51.986;5.696;2023-07-20T04:09:16;19.5;59.5
78461;SHT31;67755;51.986;5.696;2023-07-20T04:11:45;19.5;59.6
78461;SHT31;67755;51.986;5.696;2023-07-20T04:14:15;19.5;59.7
78461;SHT31;67755;51.986;5.696;2023-07-20T04:16:46;19.5;59.8
78461;SHT31;67755;51.986;5.696;2023-07-20T04:19:18;19.5;60.2
78461;SHT31;67755;51.986;5.696;2023-07-20T04:21:47;19.4;60.6
78461;SHT31;67755;51.986;5.696;2023-07-20T04:24:17;19.4;60.9
78461;SHT31;67755;51.986;5.696;2023-07-20T04:26:47;19.4;60.9
78461;SHT31;67755;51.986;5.696;2023-07-20T04:29:16;19.4;61.0
78461;SHT31;67755;51.986;5.696;2023-07-20T04:31:46;19.4;61.2
78461;SHT31;67755;51.986;5.696;2023-07-20T04:34:15;19.4;61.6
78461;SHT31;67755;51.986;5.696;2023-07-20T04:36:47;19.4;62.1
78461;SHT31;67755;51.986;5.696;2023-07-20T04:39:17;19.4;62.2
78461;SHT31;67755;51.986;5.696;2023-07-20T04:41:46;19.4;62.7
78461;SHT31;67755;51.986;5.696;2023-07-20T04:44:18;19.4;63.2
78461;SHT31;67755;51.986;5.696;2023-07-20T04:46:47;19.4;63.2
78461;SHT31;67755;51.986;5.696;2023-07-20T04:49:17;19.5;63.4
78461;SHT31;67755;51.986;5.696;2023-07-20T04:51:47;19.5;63.5
78461;SHT31;67755;51.986;5.696;2023-07-20T04:54:18;19.5;63.6
78461;SHT31;67755;51.986;5.696;2023-07-20T04:56:48;19.5;63.9
78461;SHT31;67755;51.986;5.696;2023-07-20T04:59:18;19.5;63.8
78461;SHT31;67755;51.986;5.696;2023-07-20T05:01:48;19.5;63.7
78461;SHT31;67755;51.986;5.696;2023-07-20T05:04:18;19.6;63.6
78461;SHT31;67755;51.986;5.696;2023-07-20T05:06:47;19.6;63.5
78461;SHT31;67755;51.986;5.696;2023-07-20T05:09:17;19.6;63.5
78461;SHT31;67755;51.986;5.696;2023-07-20T05:11:48;19.6;64.0
78461;SHT31;67755;51.986;5.696;2023-07-20T05:14:18;19.7;64.4
78461;SHT31;67755;51.986;5.696;2023-07-20T05:16:47;19.7;64.9
78461;SHT31;67755;51.986;5.696;2023-07-20T05:19:17;19.7;65.3
78461;SHT31;67755;51.986;5.696;2023-07-20T05:21:46;19.7;65.7
78461;SHT31;67755;51.986;5.696;2023-07-20T05:24:16;19.8;65.7
78461;SHT31;67755;51.986;5.696;2023-07-20T05:26:45;19.8;65.7
78461;SHT31;67755;51.986;5.696;2023-07-20T05:29:15;19.8;65.7
78461;SHT31;67755;51.986;5.696;2023-07-20T05:31:45;19.9;65.9
78461;SHT31;67755;51.986;5.696;2023-07-20T05:34:14;19.9;66.0
78461;SHT31;67755;51.986;5.696;2023-07-20T05:36:44;19.9;65.9
78461;SHT31;67755;51.986;5.696;2023-07-20T05:39:13;20.0;65.4
78461;SHT31;67755;51.986;5.696;2023-07-20T05:41:44;20.0;65.7
78461;SHT31;67755;51.986;5.696;2023-07-20T05:44:13;20.0;65.7
78461;SHT31;67755;51.986;5.696;2023-07-20T05:46:43;20.0;64.9
78461;SHT31;67755;51.986;5.696;2023-07-20T05:49:13;20.1;64.6
78461;SHT31;67755;51.986;5.696;2023-07-20T05:51:42;20.1;64.7
78461;SHT31;67755;51.986;5.696;2023-07-20T05:54:14;20.1;64.7
78461;SHT31;67755;51.986;5.696;2023-07-20T05:56:43;20.1;64.8
78461;SHT31;67755;51.986;5.696;2023-07-20T05:59:13;20.2;65.2
78461;SHT31;67755;51.986;5.696;2023-07-20T06:01:43;20.2;65.3
78461;SHT31;67755;51.986;5.696;2023-07-20T06:04:14;20.2;65.3
78461;SHT31;67755;51.986;5.696;2023-07-20T06:06:44;20.2;65.0
78461;SHT31;67755;51.986;5.696;2023-07-20T06:09:16;20.3;64.4
78461;SHT31;67755;51.986;5.696;2023-07-20T06:11:45;20.3;63.9
78461;SHT31;67755;51.986;5.696;2023-07-20T06:14:15;20.3;64.0
78461;SHT31;67755;51.986;5.696;2023-07-20T06:16:46;20.3;64.2
78461;SHT31;67755;51.986;5.696;2023-07-20T06:19:15;20.3;64.7
78461;SHT31;67755;51.986;5.696;2023-07-20T06:21:45;20.4;64.5
78461;SHT31;67755;51.986;5.696;2023-07-20T06:24:14;20.4;64.1
78461;SHT31;67755;51.986;5.696;2023-07-20T06:26:45;20.4;61.8
78461;SHT31;67755;51.986;5.696;2023-07-20T06:29:15;20.4;63.5
78461;SHT31;67755;51.986;5.696;2023-07-20T06:31:46;20.4;63.8
78461;SHT31;67755;51.986;5.696;2023-07-20T06:34:16;20.4;64.0
78461;SHT31;67755;51.986;5.696;2023-07-20T06:36:46;20.4;63.3
78461;SHT31;67755;51.986;5.696;2023-07-20T06:39:16;20.4;63.8
78461;SHT31;67755;51.986;5.696;2023-07-20T06:41:45;20.4;63.7
78461;SHT31;67755;51.986;5.696;2023-07-20T06:44:15;20.5;64.3
78461;SHT31;67755;51.986;5.696;2023-07-20T06:46:44;20.5;65.0
78461;SHT31;67755;51.986;5.696;2023-07-20T06:49:27;20.5;65.1
78461;SHT31;67755;51.986;5.696;2023-07-20T06:51:57;20.5;64.2
78461;SHT31;67755;51.986;5.696;2023-07-20T06:54:26;20.6;62.7
78461;SHT31;67755;51.986;5.696;2023-07-20T06:56:56;20.6;63.8
78461;SHT31;67755;51.986;5.696;2023-07-20T06:59:25;20.7;62.9
78461;SHT31;67755;51.986;5.696;2023-07-20T07:01:55;20.7;61.0
78461;SHT31;67755;51.986;5.696;2023-07-20T07:04:24;20.8;61.2
78461;SHT31;67755;51.986;5.696;2023-07-20T07:06:56;20.8;61.2
78461;SHT31;67755;51.986;5.696;2023-07-20T07:09:26;20.9;63.0
78461;SHT31;67755;51.986;5.696;2023-07-20T07:11:55;20.9;59.6
78461;SHT31;67755;51.986;5.696;2023-07-20T07:14:27;21.0;58.3
78461;SHT31;67755;51.986;5.696;2023-07-20T07:16:58;21.0;58.1
78461;SHT31;67755;51.986;5.696;2023-07-20T07:19:28;21.0;57.9
78461;SHT31;67755;51.986;5.696;2023-07-20T07:21:57;21.1;58.1
78461;SHT31;67755;51.986;5.696;2023-07-20T07:24:27;21.1;60.5
78461;SHT31;67755;51.986;5.696;2023-07-20T07:27:01;21.1;59.3
78461;SHT31;67755;51.986;5.696;2023-07-20T07:29:33;21.1;61.9
78461;SHT31;67755;51.986;5.696;2023-07-20T07:32:03;21.1;59.9
78461;SHT31;67755;51.986;5.696;2023-07-20T07:34:33;21.2;59.9
78461;SHT31;67755;51.986;5.696;2023-07-20T07:37:04;21.2;60.7
78461;SHT31;67755;51.986;5.696;2023-07-20T07:39:34;21.2;60.8
78461;SHT31;67755;51.986;5.696;2023-07-20T07:42:04;21.3;61.0
78461;SHT31;67755;51.986;5.696;2023-07-20T07:44:35;21.3;60.3
78461;SHT31;67755;51.986;5.696;2023-07-20T07:47:05;21.3;60.2
78461;SHT31;67755;51.986;5.696;2023-07-20T07:49:35;21.3;59.4
78461;SHT31;67755;51.986;5.696;2023-07-20T07:52:07;21.3;58.1
78461;SHT31;67755;51.986;5.696;2023-07-20T07:54:38;21.3;58.8
78461;SHT31;67755;51.986;5.696;2023-07-20T07:57:08;21.4;59.2
78461;SHT31;67755;51.986;5.696;2023-07-20T07:59:38;21.4;60.0
78461;SHT31;67755;51.986;5.696;2023-07-20T08:02:07;21.5;58.3
78461;SHT31;67755;51.986;5.696;2023-07-20T08:04:37;21.6;58.2
78461;SHT31;67755;51.986;5.696;2023-07-20T08:07:07;21.7;55.6
78461;SHT31;67755;51.986;5.696;2023-07-20T08:09:36;21.8;57.1
78461;SHT31;67755;51.986;5.696;2023-07-20T08:12:06;21.9;57.2
78461;SHT31;67755;51.986;5.696;2023-07-20T08:14:36;21.9;55.9
78461;SHT31;67755;51.986;5.696;2023-07-20T08:17:06;22.0;56.2
78461;SHT31;67755;51.986;5.696;2023-07-20T08:19:37;22.1;53.5
78461;SHT31;67755;51.986;5.696;2023-07-20T08:22:09;22.2;54.0
78461;SHT31;67755;51.986;5.696;2023-07-20T08:24:41;22.3;50.5
78461;SHT31;67755;51.986;5.696;2023-07-20T08:27:11;22.4;51.7
78461;SHT31;67755;51.986;5.696;2023-07-20T08:29:40;22.5;53.0
78461;SHT31;67755;51.986;5.696;2023-07-20T08:32:10;22.6;53.5
78461;SHT31;67755;51.986;5.696;2023-07-20T08:34:42;22.7;51.2
78461;SHT31;67755;51.986;5.696;2023-07-20T08:37:11;22.8;51.7
78461;SHT31;67755;51.986;5.696;2023-07-20T08:39:41;22.9;50.2
78461;SHT31;67755;51.986;5.696;2023-07-20T08:42:14;22.9;46.8
78461;SHT31;67755;51.986;5.696;2023-07-20T08:44:45;23.0;49.2
78461;SHT31;67755;51.986;5.696;2023-07-20T08:47:18;23.1;48.7
78461;SHT31;67755;51.986;5.696;2023-07-20T08:49:48;23.1;47.3
78461;SHT31;67755;51.986;5.696;2023-07-20T08:52:18;23.2;48.7
78461;SHT31;67755;51.986;5.696;2023-07-20T08:54:49;23.3;51.2
78461;SHT31;67755;51.986;5.696;2023-07-20T08:57:21;23.4;48.5
78461;SHT31;67755;51.986;5.696;2023-07-20T08:59:52;23.5;48.7
78461;SHT31;67755;51.986;5.696;2023-07-20T09:02:28;23.5;47.7
78461;SHT31;67755;51.986;5.696;2023-07-20T09:04:58;23.6;50.6
78461;SHT31;67755;51.986;5.696;2023-07-20T09:07:28;23.7;49.5
78461;SHT31;67755;51.986;5.696;2023-07-20T09:09:59;23.8;47.5
78461;SHT31;67755;51.986;5.696;2023-07-20T09:12:35;23.9;48.9
78461;SHT31;67755;51.986;5.696;2023-07-20T09:15:06;24.1;48.5
78461;SHT31;67755;51.986;5.696;2023-07-20T09:17:36;24.2;45.9
78461;SHT31;67755;51.986;5.696;2023-07-20T09:20:08;24.3;46.0
78461;SHT31;67755;51.986;5.696;2023-07-20T09:22:39;24.4;46.9
78461;SHT31;67755;51.986;5.696;2023-07-20T09:25:11;24.4;47.3
78461;SHT31;67755;51.986;5.696;2023-07-20T09:27:43;24.5;44.6
78461;SHT31;67755;51.986;5.696;2023-07-20T09:30:14;24.6;45.1
78461;SHT31;67755;51.986;5.696;2023-07-20T09:32:46;24.6;46.3
78461;SHT31;67755;51.986;5.696;2023-07-20T09:35:17;24.7;43.8
78461;SHT31;67755;51.986;5.696;2023-07-20T09:37:50;24.8;43.1
78461;SHT31;67755;51.986;5.696;2023-07-20T09:40:21;24.8;43.6
78461;SHT31;67755;51.986;5.696;2023-07-20T09:42:52;24.8;42.0
78461;SHT31;67755;51.986;5.696;2023-07-20T09:45:33;24.9;45.6
78461;SHT31;67755;51.986;5.696;2023-07-20T09:48:07;24.8;44.6
78461;SHT31;67755;51.986;5.696;2023-07-20T09:50:41;24.8;47.0
78461;SHT31;67755;51.986;5.696;2023-07-20T09:53:12;24.8;46.0
78461;SHT31;67755;51.986;5.696;2023-07-20T09:55:44;24.8;44.9
78461;SHT31;67755;51.986;5.696;2023-07-20T09:58:14;24.8;45.7
78461;SHT31;67755;51.986;5.696;2023-07-20T10:00:46;24.8;45.7
78461;SHT31;67755;51.986;5.696;2023-07-20T10:03:20;24.8;47.1
78461;SHT31;67755;51.986;5.696;2023-07-20T10:05:56;24.7;45.9
78461;SHT31;67755;51.986;5.696;2023-07-20T10:08:29;24.7;47.6
78461;SHT31;67755;51.986;5.696;2023-07-20T10:11:00;24.7;48.2
78461;SHT31;67755;51.986;5.696;2023-07-20T10:13:32;24.6;46.1
78461;SHT31;67755;51.986;5.696;2023-07-20T10:16:11;24.6;47.4
78461;SHT31;67755;51.986;5.696;2023-07-20T10:18:49;24.6;44.9
78461;SHT31;67755;51.986;5.696;2023-07-20T10:21:21;24.6;44.6
78461;SHT31;67755;51.986;5.696;2023-07-20T10:23:53;24.5;46.0
78461;SHT31;67755;51.986;5.696;2023-07-20T10:26:23;24.5;47.5
78461;SHT31;67755;51.986;5.696;2023-07-20T10:28:54;24.5;47.1
78461;SHT31;67755;51.986;5.696;2023-07-20T10:31:26;24.5;46.2
78461;SHT31;67755;51.986;5.696;2023-07-20T10:33:58;24.5;44.6
78461;SHT31;67755;51.986;5.696;2023-07-20T10:36:27;24.4;45.6
78461;SHT31;67755;51.986;5.696;2023-07-20T10:38:58;24.4;45.6
78461;SHT31;67755;51.986;5.696;2023-07-20T10:41:34;24.4;46.6
78461;SHT31;67755;51.986;5.696;2023-07-20T10:44:07;24.4;48.3
78461;SHT31;67755;51.986;5.696;2023-07-20T10:46:46;24.4;45.4
78461;SHT31;67755;51.986;5.696;2023-07-20T10:49:16;24.4;46.0
78461;SHT31;67755;51.986;5.696;2023-07-20T10:51:58;24.4;48.5
78461;SHT31;67755;51.986;5.696;2023-07-20T10:54:48;24.4;46.6
78461;SHT31;67755;51.986;5.696;2023-07-20T10:57:32;24.4;45.6
78461;SHT31;67755;51.986;5.696;2023-07-20T11:00:13;24.5;47.8
78461;SHT31;67755;51.986;5.696;2023-07-20T11:02:48;24.5;45.9
78461;SHT31;67755;51.986;5.696;2023-07-20T11:05:34;24.5;47.7
78461;SHT31;67755;51.986;5.696;2023-07-20T11:08:07;24.5;48.1
78461;SHT31;67755;51.986;5.696;2023-07-20T11:10:39;24.5;50.1
78461;SHT31;67755;51.986;5.696;2023-07-20T11:13:19;24.5;47.5
78461;SHT31;67755;51.986;5.696;2023-07-20T11:16:05;24.5;45.8
78461;SHT31;67755;51.986;5.696;2023-07-20T11:18:37;24.5;46.0
78461;SHT31;67755;51.986;5.696;2023-07-20T11:21:09;24.5;48.5
78461;SHT31;67755;51.986;5.696;2023-07-20T11:23:40;24.6;48.0
78461;SHT31;67755;51.986;5.696;2023-07-20T11:26:10;24.6;48.4
78461;SHT31;67755;51.986;5.696;2023-07-20T11:28:40;24.6;47.2
78461;SHT31;67755;51.986;5.696;2023-07-20T11:31:10;24.6;46.4
78461;SHT31;67755;51.986;5.696;2023-07-20T11:33:46;24.6;45.8
78461;SHT31;67755;51.986;5.696;2023-07-20T11:36:16;24.6;48.0
78461;SHT31;67755;51.986;5.696;2023-07-20T11:38:46;24.6;44.6
78461;SHT31;67755;51.986;5.696;2023-07-20T11:41:15;24.6;48.2
78461;SHT31;67755;51.986;5.696;2023-07-20T11:43:45;24.6;45.4
78461;SHT31;67755;51.986;5.696;2023-07-20T11:46:15;24.6;46.2
78461;SHT31;67755;51.986;5.696;2023-07-20T11:48:45;24.7;41.0
78461;SHT31;67755;51.986;5.696;2023-07-20T11:51:16;24.7;42.7
78461;SHT31;67755;51.986;5.696;2023-07-20T11:53:47;24.8;43.7
78461;SHT31;67755;51.986;5.696;2023-07-20T11:56:17;24.8;41.2
78461;SHT31;67755;51.986;5.696;2023-07-20T11:58:46;24.9;43.4
78461;SHT31;67755;51.986;5.696;2023-07-20T12:01:18;25.0;43.4
78461;SHT31;67755;51.986;5.696;2023-07-20T12:03:49;25.1;40.9
78461;SHT31;67755;51.986;5.696;2023-07-20T12:06:24;25.2;41.0
78461;SHT31;67755;51.986;5.696;2023-07-20T12:08:57;25.2;41.5
78461;SHT31;67755;51.986;5.696;2023-07-20T12:11:38;25.3;43.5
78461;SHT31;67755;51.986;5.696;2023-07-20T12:14:08;25.3;41.8
78461;SHT31;67755;51.986;5.696;2023-07-20T12:16:39;25.4;41.7
78461;SHT31;67755;51.986;5.696;2023-07-20T12:19:11;25.5;41.1
78461;SHT31;67755;51.986;5.696;2023-07-20T12:21:41;25.6;40.9
78461;SHT31;67755;51.986;5.696;2023-07-20T12:24:12;25.7;40.6
78461;SHT31;67755;51.986;5.696;2023-07-20T12:26:41;25.7;40.7
78461;SHT31;67755;51.986;5.696;2023-07-20T12:29:14;25.8;41.2
78461;SHT31;67755;51.986;5.696;2023-07-20T12:31:45;25.9;37.8
78461;SHT31;67755;51.986;5.696;2023-07-20T12:34:17;25.9;38.9
78461;SHT31;67755;51.986;5.696;2023-07-20T12:36:46;25.9;38.0
78461;SHT31;67755;51.986;5.696;2023-07-20T12:39:16;26.0;38.5
78461;SHT31;67755;51.986;5.696;2023-07-20T12:41:45;26.0;40.9
78461;SHT31;67755;51.986;5.696;2023-07-20T12:44:15;26.0;38.9
78461;SHT31;67755;51.986;5.696;2023-07-20T12:46:44;26.0;38.1
78461;SHT31;67755;51.986;5.696;2023-07-20T12:49:14;26.0;38.9
78461;SHT31;67755;51.986;5.696;2023-07-20T12:51:44;26.0;39.6
78461;SHT31;67755;51.986;5.696;2023-07-20T12:54:13;26.1;39.7
78461;SHT31;67755;51.986;5.696;2023-07-20T12:56:45;26.1;41.6
78461;SHT31;67755;51.986;5.696;2023-07-20T12:59:14;26.2;39.1
78461;SHT31;67755;51.986;5.696;2023-07-20T13:01:44;26.3;37.9
78461;SHT31;67755;51.986;5.696;2023-07-20T13:04:14;26.3;38.0
78461;SHT31;67755;51.986;5.696;2023-07-20T13:06:43;26.3;39.8
78461;SHT31;67755;51.986;5.696;2023-07-20T13:09:13;26.3;38.7
78461;SHT31;67755;51.986;5.696;2023-07-20T13:11:45;26.4;38.3
78461;SHT31;67755;51.986;5.696;2023-07-20T13:14:14;26.4;37.0
78461;SHT31;67755;51.986;5.696;2023-07-20T13:16:45;26.4;38.0
78461;SHT31;67755;51.986;5.696;2023-07-20T13:19:14;26.4;38.3
78461;SHT31;67755;51.986;5.696;2023-07-20T13:21:44;26.4;38.3
78461;SHT31;67755;51.986;5.696;2023-07-20T13:24:16;26.4;40.0
78461;SHT31;67755;51.986;5.696;2023-07-20T13:26:45;26.4;38.8
78461;SHT31;67755;51.986;5.696;2023-07-20T13:29:15;26.4;38.7
78461;SHT31;67755;51.986;5.696;2023-07-20T13:31:44;26.4;39.2
78461;SHT31;67755;51.986;5.696;2023-07-20T13:34:14;26.4;37.5
78461;SHT31;67755;51.986;5.696;2023-07-20T13:36:43;26.4;39.8
78461;SHT31;67755;51.986;5.696;2023-07-20T13:39:13;26.3;38.5
78461;SHT31;67755;51.986;5.696;2023-07-20T13:41:45;26.3;41.1
78461;SHT31;67755;51.986;5.696;2023-07-20T13:44:14;26.3;41.8
78461;SHT31;67755;51.986;5.696;2023-07-20T13:46:44;26.2;42.6
78461;SHT31;67755;51.986;5.696;2023-07-20T13:49:14;26.2;39.5
78461;SHT31;67755;51.986;5.696;2023-07-20T13:51:43;26.2;38.5
78461;SHT31;67755;51.986;5.696;2023-07-20T13:54:15;26.2;41.3
78461;SHT31;67755;51.986;5.696;2023-07-20T13:56:44;26.2;41.1
78461;SHT31;67755;51.986;5.696;2023-07-20T13:59:14;26.2;39.1
78461;SHT31;67755;51.986;5.696;2023-07-20T14:01:44;26.2;39.8
78461;SHT31;67755;51.986;5.696;2023-07-20T14:04:13;26.2;41.1
78461;SHT31;67755;51.986;5.696;2023-07-20T14:06:43;26.2;41.4
78461;SHT31;67755;51.986;5.696;2023-07-20T14:09:13;26.3;39.4
78461;SHT31;67755;51.986;5.696;2023-07-20T14:11:42;26.3;38.0
78461;SHT31;67755;51.986;5.696;2023-07-20T14:14:12;26.3;39.1
78461;SHT31;67755;51.986;5.696;2023-07-20T14:16:42;26.3;39.7
78461;SHT31;67755;51.986;5.696;2023-07-20T14:19:14;26.3;39.1
78461;SHT31;67755;51.986;5.696;2023-07-20T14:21:43;26.2;39.2
78461;SHT31;67755;51.986;5.696;2023-07-20T14:24:13;26.2;38.6
78461;SHT31;67755;51.986;5.696;2023-07-20T14:26:42;26.2;41.2
78461;SHT31;67755;51.986;5.696;2023-07-20T14:29:12;26.2;41.9
78461;SHT31;67755;51.986;5.696;2023-07-20T14:31:42;26.2;42.3
78461;SHT31;67755;51.986;5.696;2023-07-20T14:34:12;26.2;40.8
78461;SHT31;67755;51.986;5.696;2023-07-20T14:36:42;26.2;37.9
78461;SHT31;67755;51.986;5.696;2023-07-20T14:39:12;26.2;39.3
78461;SHT31;67755;51.986;5.696;2023-07-20T14:41:41;26.1;39.5
78461;SHT31;67755;51.986;5.696;2023-07-20T14:44:11;26.1;38.2
78461;SHT31;67755;51.986;5.696;2023-07-20T14:46:41;26.2;41.4
78461;SHT31;67755;51.986;5.696;2023-07-20T14:49:11;26.2;41.1
78461;SHT31;67755;51.986;5.696;2023-07-20T14:51:42;26.2;41.2
78461;SHT31;67755;51.986;5.696;2023-07-20T14:54:14;26.2;39.7
78461;SHT31;67755;51.986;5.696;2023-07-20T14:56:51;26.3;40.4
78461;SHT31;67755;51.986;5.696;2023-07-20T14:59:21;26.3;41.2
78461;SHT31;67755;51.986;5.696;2023-07-20T15:01:50;26.4;41.6
78461;SHT31;67755;51.986;5.696;2023-07-20T15:04:22;26.5;41.9
78461;SHT31;67755;51.986;5.696;2023-07-20T15:06:53;26.5;39.7
78461;SHT31;67755;51.986;5.696;2023-07-20T15:09:26;26.5;39.3
78461;SHT31;67755;51.986;5.696;2023-07-20T15:11:55;26.6;41.9
78461;SHT31;67755;51.986;5.696;2023-07-20T15:14:26;26.6;39.7
78461;SHT31;67755;51.986;5.696;2023-07-20T15:16:56;26.6;41.0
78461;SHT31;67755;51.986;5.696;2023-07-20T15:19:28;26.6;39.2
78461;SHT31;67755;51.986;5.696;2023-07-20T15:21:58;26.6;41.8
78461;SHT31;67755;51.986;5.696;2023-07-20T15:24:28;26.6;41.7
78461;SHT31;67755;51.986;5.696;2023-07-20T15:26:59;26.5;41.1
78461;SHT31;67755;51.986;5.696;2023-07-20T15:29:30;26.5;41.4
78461;SHT31;67755;51.986;5.696;2023-07-20T15:32:00;26.5;41.5
78461;SHT31;67755;51.986;5.696;2023-07-20T15:34:29;26.4;42.4
78461;SHT31;67755;51.986;5.696;2023-07-20T15:36:59;26.4;38.9
78461;SHT31;67755;51.986;5.696;2023-07-20T15:39:28;26.3;41.9
78461;SHT31;67755;51.986;5.696;2023-07-20T15:41:58;26.3;42.6
78461;SHT31;67755;51.986;5.696;2023-07-20T15:44:28;26.2;40.2
78461;SHT31;67755;51.986;5.696;2023-07-20T15:46:58;26.2;38.5
78461;SHT31;67755;51.986;5.696;2023-07-20T15:49:28;26.2;40.5
78461;SHT31;67755;51.986;5.696;2023-07-20T15:51:57;26.1;41.5
78461;SHT31;67755;51.986;5.696;2023-07-20T15:54:27;26.1;40.0
78461;SHT31;67755;51.986;5.696;2023-07-20T15:56:58;26.1;37.3
78461;SHT31;67755;51.986;5.696;2023-07-20T15:59:30;26.1;39.2
78461;SHT31;67755;51.986;5.696;2023-07-20T16:02:00;26.0;40.2
78461;SHT31;67755;51.986;5.696;2023-07-20T16:04:32;26.0;39.5
78461;SHT31;67755;51.986;5.696;2023-07-20T16:07:01;26.0;41.4
78461;SHT31;67755;51.986;5.696;2023-07-20T16:09:34;26.0;40.0
78461;SHT31;67755;51.986;5.696;2023-07-20T16:12:06;26.0;40.6
78461;SHT31;67755;51.986;5.696;2023-07-20T16:14:35;26.0;39.0
78461;SHT31;67755;51.986;5.696;2023-07-20T16:17:08;26.0;40.9
78461;SHT31;67755;51.986;5.696;2023-07-20T16:19:38;25.9;41.4
78461;SHT31;67755;51.986;5.696;2023-07-20T16:22:08;25.9;38.8
78461;SHT31;67755;51.986;5.696;2023-07-20T16:24:39;25.9;40.8
78461;SHT31;67755;51.986;5.696;2023-07-20T16:27:08;25.8;39.9
78461;SHT31;67755;51.986;5.696;2023-07-20T16:29:38;25.8;39.5